Highlands Peak, California Weather observations

Data are for observation ending at time listed.
 Day   Time    Ave.   Ave.  Ave.  Vector   Max.   Stn.    Total    Solar   Ave.  
  of    of     Air    Rel.  Wind   Wind    Wind   Baro.  Precip.   Rad.    Soil  
Year   Day     Temp.  Hum.  Speed  Dir.    Gust   Pres.                    Temp. 
2026   (PST)    F      %     mph   deg.    mph     mb.     in.     W/m2     F   
------------------------------------------------------------------------------
 124   18:40   45.4   100    5.3   223      7.2   927.4    0.00       3    62.0
 124   18:50   45.3   100    6.2   222      8.8   927.4    0.00       2    62.0
 124   19:00   45.2   101    5.3   233      7.2   927.4    0.00       1    62.0
 124   19:10   45.1   107    5.4   230      8.6   927.5    0.00       0    62.0
 124   19:20   45.0   108    6.3   235      8.5   927.6    0.00       0    62.0
 124   19:30   45.1   108    6.1   227      8.0   927.8    0.00       0    61.9
 124   19:40   45.0   108    7.5   230     10.4   927.9    0.00       0    61.9
 124   19:50   44.8   109    7.5   236     10.0   927.9    0.00       0    61.8
 124   20:00   44.6   109    8.1   239     11.0   927.9    0.00       0    61.8
 124   20:10   44.4   109    6.6   242      9.8   927.9    0.00       0    61.8
 124   20:20   44.2   109    6.9   251     10.1   928.0    0.00       0    61.7
 124   20:30   44.3   109    5.4   263      8.2   928.0    0.00       0    61.7
 124   20:40   44.4   109    4.8   249      7.8   928.1    0.00       0    61.6
 124   20:50   44.5   107    3.4   244      6.0   928.1    0.00       0    61.6
 124   21:00   44.7   100    3.7   240      5.9   928.2    0.00       0    61.5
 124   21:10   44.8   100    2.2   241      3.6   928.2    0.00       0    61.5
 124   21:20   44.9   100    2.8   266      4.0   928.2    0.00       0    61.5
 124   21:30   44.9   100    3.6   300      5.5   928.2    0.00       0    61.4
 124   21:40   45.0    98    4.3   307      6.1   928.3    0.00       0    61.4
 124   21:50   45.0    95    5.1   323      7.2   928.2    0.00       0    61.4
 124   22:00   45.0    95    5.0   342      7.2   928.0    0.00       0    61.4
 124   22:10   44.9    96    3.5   355      5.6   928.0    0.00       0    61.3
 124   22:20   44.9    95    3.8   350      6.9   927.9    0.00       0    61.3
 124   22:30   44.5    96    4.6    15      6.9   927.9    0.00       0    61.3
 124   22:40   44.5    95    4.3     9      5.6   927.8    0.00       0    61.2
 124   22:50   44.8    93    3.1   356      4.7   927.8    0.00       0    61.1
 124   23:00   44.9    92    2.5   350      3.7   927.8    0.00       0    61.0
 124   23:10   45.2    90    2.4    20      3.5   927.9    0.00       0    61.0
 124   23:20   45.5    90    2.5    37      2.9   927.9    0.00       0    60.9
 124   23:30   45.5    89    2.4    19      3.1   927.9    0.00       0    60.9
 124   23:40   45.8    88    1.9   349      2.5   927.9    0.00       0    60.8
 124   23:50   45.7    87    2.5    26      3.2   927.9    0.00       0    60.7
 125    0:00   45.5    88    1.6    28      2.3   927.9    0.00       0    60.7
 125    0:10   45.7    87    0.9    31      1.8   927.9    0.00       0    60.6
 125    0:20   45.7    88    1.4   105      2.1   927.9    0.00       0    60.6
 125    0:30   45.8    88    1.3   122      1.8   927.8    0.00       0    60.5
 125    0:40   45.6    89    0.7   115      1.8   927.8    0.00       0    60.5
 125    0:50   45.3    89    0.9   241      2.0   927.8    0.00       0    60.4
 125    1:00   45.2    91    0.6   208      1.8   927.7    0.00       0    60.3
 125    1:10   45.0    92    0.0     0      0.0   927.6    0.00       0    60.3
 125    1:20   44.9    90    0.9    44      2.0   927.6    0.00       0    60.2
 125    1:30   44.5    88    2.0    51      2.4   927.5    0.00       0    60.2
 125    1:40   44.6    88    2.3    13      3.1   927.4    0.00       0    60.1
 125    1:50   44.6    88    2.6     7      3.2   927.3    0.00       0    60.1
 125    2:00   44.7    88    3.0   352      3.4   927.3    0.00       0    60.0
 125    2:10   45.1    87    2.6   342      3.0   927.3    0.00       0    60.0
 125    2:20   45.5    86    2.5   322      3.4   927.3    0.00       0    59.9
 125    2:30   45.7    86    2.4   316      3.3   927.3    0.00       0    59.8
 125    2:40   45.5    86    2.4   273      3.1   927.3    0.00       0    59.8
 125    2:50   44.8    90    0.9   294      2.1   927.3    0.00       0    59.7
 125    3:00   44.9    88    2.5    12      3.0   927.2    0.00       0    59.7
 125    3:10   45.1    88    2.6   346      3.9   927.2    0.00       0    59.6
 125    3:20   44.8    88    3.3   354      4.7   927.2    0.00       0    59.6
 125    3:30   44.5    89    2.4     5      3.5   927.2    0.00       0    59.5
 125    3:40   44.8    89    1.5    27      3.7   927.1    0.00       0    59.5
 125    3:50   45.4    90    1.4   229      2.8   927.1    0.00       0    59.4
 125    4:00   45.4    90    2.4   238      2.8   927.1    0.00       0    59.3
 125    4:10   45.1    91    2.5   253      2.9   927.1    0.00       0    59.3
 125    4:20   44.8    93    2.4   276      2.7   927.1    0.00       0    59.2
 125    4:30   44.8    93    2.3   307      3.7   927.2    0.00       0    59.2
 125    4:40   45.2    89    3.8   346      4.6   927.2    0.00       0    59.2
 125    4:50   45.1    89    4.5     8      5.6   927.2    0.00       0    59.1
 125    5:00   45.2    88    4.2     7      5.3   927.1    0.00       0    59.0
 125    5:10   45.6    85    1.8   336      4.6   927.1    0.00       2    59.0
 125    5:20   45.6    86    3.4   246      4.4   927.2    0.00       5    58.9
 125    5:30   45.1    92    1.7   245      3.0   927.3    0.00       9    58.9
 125    5:40   45.1    90    1.1   284      2.0   927.3    0.00      20    58.8
 125    5:50   45.0    87    3.3     4      4.0   927.3    0.00      37    58.8
 125    6:00   45.2    86    2.9   324      3.9   927.3    0.00      49    58.7
 125    6:10   45.4    88    3.1   275      4.2   927.5    0.00      58    58.7
 125    6:20   45.6    90    2.3   279      3.5   927.5    0.00      88    58.6
 125    6:30   45.7    90    2.8   270      3.6   927.6    0.00     106    58.5
 125    6:40   45.9    90    2.6   266      3.1   927.7    0.00     132    58.5
 125    6:50   46.3    90    1.3   283      2.4   927.8    0.00     153    58.4
 125    7:00   46.7    88    0.6   234      2.1   927.8    0.00     142    58.4
 125    7:10   47.4    83    2.2   220      3.7   927.9    0.00     216    58.3
 125    7:20   47.7    84    2.4   223      3.4   928.0    0.00     283    58.2
 125    7:30   47.8    82    2.0   236      3.7   928.2    0.00     267    58.2
 125    7:40   47.9    81    1.1   218      3.3   928.2    0.00     243    58.2
 125    7:50   48.3    81    2.6   219      4.5   928.2    0.00     299    58.2
 125    8:00   48.3    81    3.3   216      4.5   928.2    0.00     362    58.1
 125    8:10   48.3    77    2.7   232      4.9   928.3    0.00     333    58.1
 125    8:20   49.1    73    1.0   236      3.4   928.4    0.00     529    58.1
 125    8:30   50.2    71    2.8   216      6.1   928.4    0.00     697    58.0
 125    8:40   50.7    70    4.5   209      7.5   928.5    0.00     743    58.0
 125    8:50   50.9    73    4.1   222      7.0   928.5    0.00     490    58.0
 125    9:00   50.5    71    5.0   223      8.0   928.6    0.00     416    58.0
 125    9:10   50.1    72    5.7   218      9.7   928.6    0.00     430    58.1
 125    9:20   49.5    74    4.5   220      7.9   928.5    0.00     385    58.1
 125    9:30   49.1    75    4.3   225      7.7   928.6    0.00     324    58.2
 125    9:40   49.3    76    3.2   230      5.8   928.7    0.00     442    58.3
 125    9:50   49.1    75    2.9   212      5.0   928.7    0.00     366    58.3
 125   10:00   49.4    77    4.1   219      6.4   928.8    0.00     529    58.4
 125   10:10   50.5    74    3.3   206      7.5   928.9    0.00     780    58.4
 125   10:20   52.4    71    5.7   207     10.2   929.0    0.00     950    58.4
 125   10:30   52.3    71    7.3   212     10.8   929.1    0.00     874    58.5
 125   10:40   50.9    76    7.4   217     11.1   929.2    0.00     549    58.5
 125   10:50   50.9    79    6.7   231     10.4   929.3    0.00     747    58.6
 125   11:00   50.7    80    6.1   223      9.4   929.3    0.00     576    58.7
 125   11:10   51.0    83    4.9   217      8.7   929.4    0.00     657    58.8
 125   11:20   51.2    86    5.5   212      9.0   929.4    0.00     658    58.8
 125   11:30   51.5    84    4.4   210      7.2   929.4    0.00     712    58.9
 125   11:40   51.8    82    3.1   220      5.3   929.7    0.00     724    59.0
 125   11:50   52.7    79    3.6   191      6.5   929.7    0.00     853    59.1
 125   12:00   53.7    79    4.2   195      8.2   929.6    0.00     493    59.2
 125   12:10   52.3    85    4.4   158      7.9   929.6    0.00     501    59.4
 125   12:20   53.1    86    3.7   150      7.7   929.6    0.00     762    59.5
 125   12:30   53.5    83    3.5   194      6.5   929.5    0.00     619    59.6
 125   12:40   52.9    85    4.2   218      7.1   929.6    0.00     584    59.8
 125   12:50   52.9    86    3.5   224      6.9   929.6    0.00     916    59.9
 125   13:00   53.5    85    4.5   222      7.5   929.6    0.00     526    60.1
 125   13:10   52.8    86    4.7   211      8.8   929.6    0.00     440    60.2
 125   13:20   51.7    88    5.4   209      9.7   929.7    0.00     686    60.4
 125   13:30   53.0    84    4.5   208      8.4   929.6    0.00     743    60.6
 125   13:40   52.5    84    3.7   205      7.2   929.6    0.00     351    60.7
 125   13:50   51.6    88    4.9   224      8.0   929.5    0.00     313    60.9
 125   14:00   49.9    92    5.1   220      8.8   929.5    0.00     296    61.1
 125   14:10   49.3    95    3.9   231      6.0   929.6    0.00     350    61.2
 125   14:20   50.2    94    3.6   229      6.5   929.5    0.00     392    61.4
 125   14:30   50.1    94    5.6   223      9.1   929.4    0.00     308    61.5
 125   14:40   49.8    96    4.7   222      7.8   929.3    0.00     283    61.6
 125   14:50   49.9    96    4.7   225      8.2   929.3    0.00     237    61.7
 125   15:00   49.5    96    4.5   223      6.1   929.2    0.00     196    61.8
 125   15:10   49.0    99    3.7   225      5.8   929.1    0.00     189    61.8
 125   15:20   49.1    99    3.5   225      5.4   929.1    0.00     179    61.9
 125   15:30   48.5   100    4.0   232      6.5   929.0    0.00     183    62.0
 125   15:40   48.7   100    3.3   221      6.1   929.0    0.00     170    62.0
 125   15:50   49.1   100    2.9   219      4.6   929.0    0.00     168    62.1
 125   16:00   49.0   100    3.5   224      5.6   929.1    0.00     152    62.1
 125   16:10   48.8   100    5.1   225      7.9   929.0    0.00     138    62.1
 125   16:20   48.3   100    3.1   214      6.1   929.1    0.00     136    62.2
 125   16:30   48.2   100    2.6   204      4.5   929.2    0.00     153    62.2
 125   16:40   48.4   100    1.3   212      3.2   929.2    0.00     177    62.2
 125   16:50   48.9   100    0.8   247      2.1   929.2    0.00     157    62.2
 125   17:00   49.6   100    0.9   112      2.2   929.2    0.00     211    62.2
 125   17:10   50.3   100    0.5    73      1.8   929.2    0.00     213    62.2
 125   17:20   50.8   100    2.1   247      3.4   929.2    0.00     308    62.2
 125   17:30   50.7    99    1.9   237      3.6   929.2    0.00     179    62.3
 125   17:40   50.2   100    1.9   265      3.8   929.2    0.00     107    62.3
 125   17:50   49.9   100    1.4   228      2.4   929.1    0.00      85    62.3
 125   18:00   49.8   100    1.3   258      2.2   929.1    0.00      77    62.4
 125   18:10   49.6   100    1.5   315      2.5   929.1    0.00      61    62.4
 125   18:20   49.3   100    1.5   271      3.5   929.2    0.00      46    62.4
 125   18:30   49.0   100    0.3   112      1.2   929.2    0.00      35    62.4

Return to Highlands Peak graphs page.


Western Regional Climate Center,wrcc@dri.edu